Terminal Aerodrome Forecast
Issued by NWS

Home | Current Version | Previous Version | Text Only | Print | Product List | Glossary On
Versions: 1 2 3 4 5 6 7 8 9 10 11 12 13 14 15 16 17 18 19 20 21 22 23 24 25 26 27 28 29 30 31 32 33 34 35 36 37 38 39 40 41 42 43 44
000
FTUS42 KRAH 282340
TAFRWI
TAF
KRWI 282340Z 2900/2924 17007KT 6SM -RA SCT035 BKN100
      TEMPO 2900/2902 3SM -SHRA SCT015 BKN035
     FM290900 15004KT P6SM SCT007 OVC100
     FM291400 13006KT P6SM SCT035 BKN050
      TEMPO 2919/2923 VRB15G30KT 2SM -TSRA SCT020 BKN040CB=

USA.gov is the U.S. government's official web portal to all federal, state and local government web resources and services.